sensor_id;sensor_type;location;lat;lon;timestamp;P1;durP1;ratioP1;P2;durP2;ratioP2
29466;SDS011;60968;37.490;-122.288;2023-02-01T00:02:52;1.80;;;0.73;;
29466;SDS011;60968;37.490;-122.288;2023-02-01T00:05:58;2.10;;;0.60;;
29466;SDS011;60968;37.490;-122.288;2023-02-01T00:09:00;1.20;;;0.50;;
29466;SDS011;60968;37.490;-122.288;2023-02-01T00:12:02;0.90;;;0.30;;
29466;SDS011;60968;37.490;-122.288;2023-02-01T00:15:03;1.30;;;0.50;;
29466;SDS011;60968;37.490;-122.288;2023-02-01T00:18:04;2.10;;;0.50;;
29466;SDS011;60968;37.490;-122.288;2023-02-01T00:21:05;2.07;;;0.50;;
29466;SDS011;60968;37.490;-122.288;2023-02-01T00:24:06;1.77;;;0.40;;
29466;SDS011;60968;37.490;-122.288;2023-02-01T00:27:07;3.47;;;0.30;;
29466;SDS011;60968;37.490;-122.288;2023-02-01T00:30:08;1.73;;;0.50;;
29466;SDS011;60968;37.490;-122.288;2023-02-01T00:33:10;1.07;;;0.47;;
29466;SDS011;60968;37.490;-122.288;2023-02-01T00:36:12;3.97;;;0.40;;
29466;SDS011;60968;37.490;-122.288;2023-02-01T00:39:13;2.20;;;0.40;;
29466;SDS011;60968;37.490;-122.288;2023-02-01T00:42:14;1.10;;;0.30;;
29466;SDS011;60968;37.490;-122.288;2023-02-01T00:45:15;9.27;;;0.70;;
29466;SDS011;60968;37.490;-122.288;2023-02-01T00:48:17;0.90;;;0.47;;
29466;SDS011;60968;37.490;-122.288;2023-02-01T00:51:18;1.43;;;0.60;;
29466;SDS011;60968;37.490;-122.288;2023-02-01T00:54:21;1.13;;;0.50;;
29466;SDS011;60968;37.490;-122.288;2023-02-01T00:57:22;1.40;;;0.50;;
29466;SDS011;60968;37.490;-122.288;2023-02-01T01:00:23;2.30;;;0.40;;
29466;SDS011;60968;37.490;-122.288;2023-02-01T01:03:26;2.47;;;0.60;;
29466;SDS011;60968;37.490;-122.288;2023-02-01T01:06:28;6.77;;;0.73;;
29466;SDS011;60968;37.490;-122.288;2023-02-01T01:09:30;3.60;;;0.77;;
29466;SDS011;60968;37.490;-122.288;2023-02-01T01:12:31;1.37;;;0.60;;
29466;SDS011;60968;37.490;-122.288;2023-02-01T01:15:35;1.10;;;0.50;;
29466;SDS011;60968;37.490;-122.288;2023-02-01T01:18:37;2.33;;;0.90;;
29466;SDS011;60968;37.490;-122.288;2023-02-01T01:21:38;3.50;;;0.70;;
29466;SDS011;60968;37.490;-122.288;2023-02-01T01:24:39;2.73;;;0.70;;
29466;SDS011;60968;37.490;-122.288;2023-02-01T01:27:40;3.23;;;0.60;;
29466;SDS011;60968;37.490;-122.288;2023-02-01T01:30:41;0.60;;;0.40;;
29466;SDS011;60968;37.490;-122.288;2023-02-01T01:33:42;2.73;;;0.53;;
29466;SDS011;60968;37.490;-122.288;2023-02-01T01:36:43;1.63;;;0.53;;
29466;SDS011;60968;37.490;-122.288;2023-02-01T01:39:43;4.43;;;0.37;;
29466;SDS011;60968;37.490;-122.288;2023-02-01T01:42:44;2.40;;;0.50;;
29466;SDS011;60968;37.490;-122.288;2023-02-01T01:45:45;3.03;;;0.40;;
29466;SDS011;60968;37.490;-122.288;2023-02-01T01:48:50;4.00;;;0.40;;
29466;SDS011;60968;37.490;-122.288;2023-02-01T01:52:12;0.63;;;0.40;;
29466;SDS011;60968;37.490;-122.288;2023-02-01T01:55:14;2.83;;;0.50;;
29466;SDS011;60968;37.490;-122.288;2023-02-01T01:58:19;1.50;;;0.40;;
29466;SDS011;60968;37.490;-122.288;2023-02-01T02:01:24;2.43;;;0.87;;
29466;SDS011;60968;37.490;-122.288;2023-02-01T02:04:25;1.30;;;0.53;;
29466;SDS011;60968;37.490;-122.288;2023-02-01T02:07:27;4.30;;;0.60;;
29466;SDS011;60968;37.490;-122.288;2023-02-01T02:10:31;1.33;;;0.77;;
29466;SDS011;60968;37.490;-122.288;2023-02-01T02:13:36;2.20;;;0.50;;
29466;SDS011;60968;37.490;-122.288;2023-02-01T02:33:32;3.97;;;1.03;;
29466;SDS011;60968;37.490;-122.288;2023-02-01T02:40:36;6.83;;;0.80;;
29466;SDS011;60968;37.490;-122.288;2023-02-01T02:43:56;4.43;;;0.80;;
29466;SDS011;60968;37.490;-122.288;2023-02-01T02:47:02;4.60;;;1.03;;
29466;SDS011;60968;37.490;-122.288;2023-02-01T02:50:15;1.20;;;0.70;;
29466;SDS011;60968;37.490;-122.288;2023-02-01T02:56:49;6.17;;;0.67;;
29466;SDS011;60968;37.490;-122.288;2023-02-01T02:59:52;2.33;;;0.43;;
29466;SDS011;60968;37.490;-122.288;2023-02-01T03:02:55;2.67;;;0.87;;
29466;SDS011;60968;37.490;-122.288;2023-02-01T03:05:56;2.70;;;0.80;;
29466;SDS011;60968;37.490;-122.288;2023-02-01T03:08:57;3.30;;;0.77;;
29466;SDS011;60968;37.490;-122.288;2023-02-01T03:12:01;0.87;;;0.40;;
29466;SDS011;60968;37.490;-122.288;2023-02-01T03:15:12;3.17;;;0.73;;
29466;SDS011;60968;37.490;-122.288;2023-02-01T03:18:16;1.97;;;0.60;;
29466;SDS011;60968;37.490;-122.288;2023-02-01T03:21:29;1.10;;;0.40;;
29466;SDS011;60968;37.490;-122.288;2023-02-01T03:24:54;6.27;;;0.83;;
29466;SDS011;60968;37.490;-122.288;2023-02-01T03:28:04;2.07;;;0.70;;
29466;SDS011;60968;37.490;-122.288;2023-02-01T03:31:07;4.57;;;0.70;;
29466;SDS011;60968;37.490;-122.288;2023-02-01T03:34:10;2.17;;;0.67;;
29466;SDS011;60968;37.490;-122.288;2023-02-01T03:37:13;1.90;;;0.80;;
29466;SDS011;60968;37.490;-122.288;2023-02-01T03:40:21;2.50;;;0.77;;
29466;SDS011;60968;37.490;-122.288;2023-02-01T03:43:24;5.47;;;0.80;;
29466;SDS011;60968;37.490;-122.288;2023-02-01T03:46:52;3.37;;;0.60;;
29466;SDS011;60968;37.490;-122.288;2023-02-01T03:50:17;4.63;;;0.93;;
29466;SDS011;60968;37.490;-122.288;2023-02-01T03:53:20;2.77;;;0.67;;
29466;SDS011;60968;37.490;-122.288;2023-02-01T03:56:26;2.27;;;0.60;;
29466;SDS011;60968;37.490;-122.288;2023-02-01T03:59:30;3.27;;;0.80;;
29466;SDS011;60968;37.490;-122.288;2023-02-01T04:02:31;3.17;;;0.90;;
29466;SDS011;60968;37.490;-122.288;2023-02-01T04:05:32;7.00;;;1.27;;
29466;SDS011;60968;37.490;-122.288;2023-02-01T04:08:34;6.43;;;0.70;;
29466;SDS011;60968;37.490;-122.288;2023-02-01T04:11:34;1.50;;;0.50;;
29466;SDS011;60968;37.490;-122.288;2023-02-01T04:14:35;1.77;;;0.70;;
29466;SDS011;60968;37.490;-122.288;2023-02-01T04:17:37;3.23;;;0.83;;
29466;SDS011;60968;37.490;-122.288;2023-02-01T04:20:38;1.60;;;0.40;;
29466;SDS011;60968;37.490;-122.288;2023-02-01T04:23:39;3.57;;;0.60;;
29466;SDS011;60968;37.490;-122.288;2023-02-01T04:26:42;2.97;;;0.87;;
29466;SDS011;60968;37.490;-122.288;2023-02-01T04:29:43;3.37;;;0.50;;
29466;SDS011;60968;37.490;-122.288;2023-02-01T04:32:44;3.37;;;0.63;;
29466;SDS011;60968;37.490;-122.288;2023-02-01T04:35:45;4.03;;;0.80;;
29466;SDS011;60968;37.490;-122.288;2023-02-01T04:38:45;6.70;;;0.80;;
29466;SDS011;60968;37.490;-122.288;2023-02-01T04:41:49;2.20;;;0.70;;
29466;SDS011;60968;37.490;-122.288;2023-02-01T04:44:50;4.20;;;0.70;;
29466;SDS011;60968;37.490;-122.288;2023-02-01T04:47:51;5.93;;;0.70;;
29466;SDS011;60968;37.490;-122.288;2023-02-01T04:50:51;3.27;;;1.00;;
29466;SDS011;60968;37.490;-122.288;2023-02-01T04:53:52;3.43;;;0.63;;
29466;SDS011;60968;37.490;-122.288;2023-02-01T04:56:53;5.07;;;0.70;;
29466;SDS011;60968;37.490;-122.288;2023-02-01T04:59:54;4.10;;;0.80;;
29466;SDS011;60968;37.490;-122.288;2023-02-01T05:02:55;1.90;;;0.90;;
29466;SDS011;60968;37.490;-122.288;2023-02-01T05:05:56;5.93;;;1.10;;
29466;SDS011;60968;37.490;-122.288;2023-02-01T05:08:57;2.77;;;1.00;;
29466;SDS011;60968;37.490;-122.288;2023-02-01T05:11:58;6.37;;;0.80;;
29466;SDS011;60968;37.490;-122.288;2023-02-01T05:14:58;6.83;;;1.00;;
29466;SDS011;60968;37.490;-122.288;2023-02-01T05:18:00;4.77;;;0.70;;
29466;SDS011;60968;37.490;-122.288;2023-02-01T05:21:01;2.90;;;0.80;;
29466;SDS011;60968;37.490;-122.288;2023-02-01T05:24:01;7.63;;;1.10;;
29466;SDS011;60968;37.490;-122.288;2023-02-01T05:27:02;2.33;;;0.80;;
29466;SDS011;60968;37.490;-122.288;2023-02-01T05:30:04;2.43;;;0.80;;
29466;SDS011;60968;37.490;-122.288;2023-02-01T05:33:06;5.20;;;0.83;;
29466;SDS011;60968;37.490;-122.288;2023-02-01T05:36:08;3.10;;;0.90;;
29466;SDS011;60968;37.490;-122.288;2023-02-01T05:39:09;4.57;;;0.73;;
29466;SDS011;60968;37.490;-122.288;2023-02-01T05:42:13;4.13;;;0.73;;
29466;SDS011;60968;37.490;-122.288;2023-02-01T05:45:14;4.17;;;0.70;;
29466;SDS011;60968;37.490;-122.288;2023-02-01T05:48:15;5.87;;;0.93;;
29466;SDS011;60968;37.490;-122.288;2023-02-01T05:51:16;4.50;;;0.90;;
29466;SDS011;60968;37.490;-122.288;2023-02-01T05:54:16;3.97;;;0.90;;
29466;SDS011;60968;37.490;-122.288;2023-02-01T05:57:17;6.10;;;1.10;;
29466;SDS011;60968;37.490;-122.288;2023-02-01T06:00:18;2.17;;;0.70;;
29466;SDS011;60968;37.490;-122.288;2023-02-01T06:03:20;2.47;;;0.80;;
29466;SDS011;60968;37.490;-122.288;2023-02-01T06:06:21;3.17;;;0.60;;
29466;SDS011;60968;37.490;-122.288;2023-02-01T06:09:22;3.30;;;1.40;;
29466;SDS011;60968;37.490;-122.288;2023-02-01T06:12:23;7.93;;;0.70;;
29466;SDS011;60968;37.490;-122.288;2023-02-01T06:15:23;3.23;;;0.70;;
29466;SDS011;60968;37.490;-122.288;2023-02-01T06:18:24;3.23;;;0.60;;
29466;SDS011;60968;37.490;-122.288;2023-02-01T06:21:25;5.23;;;0.83;;
29466;SDS011;60968;37.490;-122.288;2023-02-01T06:24:26;8.30;;;1.90;;
29466;SDS011;60968;37.490;-122.288;2023-02-01T06:27:27;2.37;;;0.83;;
29466;SDS011;60968;37.490;-122.288;2023-02-01T06:30:28;2.67;;;0.60;;
29466;SDS011;60968;37.490;-122.288;2023-02-01T06:33:29;2.97;;;0.90;;
29466;SDS011;60968;37.490;-122.288;2023-02-01T06:36:30;2.40;;;0.93;;
29466;SDS011;60968;37.490;-122.288;2023-02-01T06:39:31;3.33;;;1.27;;
29466;SDS011;60968;37.490;-122.288;2023-02-01T06:42:32;12.93;;;1.43;;
29466;SDS011;60968;37.490;-122.288;2023-02-01T06:45:33;5.20;;;0.93;;
29466;SDS011;60968;37.490;-122.288;2023-02-01T06:48:33;1.33;;;0.73;;
29466;SDS011;60968;37.490;-122.288;2023-02-01T06:51:34;3.80;;;0.70;;
29466;SDS011;60968;37.490;-122.288;2023-02-01T06:54:35;4.90;;;1.13;;
29466;SDS011;60968;37.490;-122.288;2023-02-01T06:57:36;6.60;;;1.10;;
29466;SDS011;60968;37.490;-122.288;2023-02-01T07:00:37;3.73;;;0.73;;
29466;SDS011;60968;37.490;-122.288;2023-02-01T07:03:38;1.50;;;0.67;;
29466;SDS011;60968;37.490;-122.288;2023-02-01T07:06:39;7.93;;;0.90;;
29466;SDS011;60968;37.490;-122.288;2023-02-01T07:09:40;2.67;;;0.63;;
29466;SDS011;60968;37.490;-122.288;2023-02-01T07:12:41;2.73;;;0.70;;
29466;SDS011;60968;37.490;-122.288;2023-02-01T07:15:42;2.30;;;0.80;;
29466;SDS011;60968;37.490;-122.288;2023-02-01T07:18:44;3.27;;;1.00;;
29466;SDS011;60968;37.490;-122.288;2023-02-01T07:21:45;2.83;;;0.80;;
29466;SDS011;60968;37.490;-122.288;2023-02-01T07:24:46;3.90;;;0.87;;
29466;SDS011;60968;37.490;-122.288;2023-02-01T07:27:47;2.27;;;0.63;;
29466;SDS011;60968;37.490;-122.288;2023-02-01T07:30:48;2.40;;;0.70;;
29466;SDS011;60968;37.490;-122.288;2023-02-01T07:33:49;1.87;;;0.80;;
29466;SDS011;60968;37.490;-122.288;2023-02-01T07:36:50;1.90;;;0.80;;
29466;SDS011;60968;37.490;-122.288;2023-02-01T07:39:52;9.67;;;0.90;;
29466;SDS011;60968;37.490;-122.288;2023-02-01T07:42:53;1.53;;;0.67;;
29466;SDS011;60968;37.490;-122.288;2023-02-01T07:45:55;6.10;;;0.70;;
29466;SDS011;60968;37.490;-122.288;2023-02-01T07:48:57;5.40;;;0.80;;
29466;SDS011;60968;37.490;-122.288;2023-02-01T07:51:58;0.97;;;0.60;;
29466;SDS011;60968;37.490;-122.288;2023-02-01T07:54:59;3.20;;;0.63;;
29466;SDS011;60968;37.490;-122.288;2023-02-01T07:58:00;8.80;;;0.83;;
29466;SDS011;60968;37.490;-122.288;2023-02-01T08:01:00;3.57;;;0.93;;
29466;SDS011;60968;37.490;-122.288;2023-02-01T08:04:02;2.03;;;0.90;;
29466;SDS011;60968;37.490;-122.288;2023-02-01T08:07:04;2.50;;;0.50;;
29466;SDS011;60968;37.490;-122.288;2023-02-01T08:10:05;1.20;;;0.57;;
29466;SDS011;60968;37.490;-122.288;2023-02-01T08:13:06;1.73;;;0.80;;
29466;SDS011;60968;37.490;-122.288;2023-02-01T08:16:08;1.73;;;0.73;;
29466;SDS011;60968;37.490;-122.288;2023-02-01T08:19:10;1.50;;;0.73;;
29466;SDS011;60968;37.490;-122.288;2023-02-01T08:22:11;3.97;;;0.90;;
29466;SDS011;60968;37.490;-122.288;2023-02-01T08:25:12;1.43;;;0.60;;
29466;SDS011;60968;37.490;-122.288;2023-02-01T08:28:13;2.83;;;1.00;;
29466;SDS011;60968;37.490;-122.288;2023-02-01T08:31:15;3.07;;;0.67;;
29466;SDS011;60968;37.490;-122.288;2023-02-01T08:34:17;2.03;;;0.70;;
29466;SDS011;60968;37.490;-122.288;2023-02-01T08:37:18;1.83;;;0.50;;
29466;SDS011;60968;37.490;-122.288;2023-02-01T08:40:19;2.43;;;0.63;;
29466;SDS011;60968;37.490;-122.288;2023-02-01T08:43:20;1.63;;;0.70;;
29466;SDS011;60968;37.490;-122.288;2023-02-01T08:46:21;3.53;;;0.67;;
29466;SDS011;60968;37.490;-122.288;2023-02-01T08:49:24;1.80;;;0.90;;
29466;SDS011;60968;37.490;-122.288;2023-02-01T08:52:25;4.03;;;1.00;;
29466;SDS011;60968;37.490;-122.288;2023-02-01T08:55:26;3.20;;;0.70;;
29466;SDS011;60968;37.490;-122.288;2023-02-01T08:58:27;5.13;;;0.60;;
29466;SDS011;60968;37.490;-122.288;2023-02-01T09:01:28;4.07;;;1.00;;
29466;SDS011;60968;37.490;-122.288;2023-02-01T09:04:28;2.47;;;0.67;;
29466;SDS011;60968;37.490;-122.288;2023-02-01T09:07:29;3.00;;;0.90;;
29466;SDS011;60968;37.490;-122.288;2023-02-01T09:10:31;3.83;;;0.83;;
29466;SDS011;60968;37.490;-122.288;2023-02-01T09:13:32;4.17;;;0.70;;
29466;SDS011;60968;37.490;-122.288;2023-02-01T09:16:33;2.17;;;0.60;;
29466;SDS011;60968;37.490;-122.288;2023-02-01T09:19:34;1.30;;;0.80;;
29466;SDS011;60968;37.490;-122.288;2023-02-01T09:22:35;4.73;;;0.70;;
29466;SDS011;60968;37.490;-122.288;2023-02-01T09:25:38;3.23;;;0.80;;
29466;SDS011;60968;37.490;-122.288;2023-02-01T09:28:39;2.60;;;0.83;;
29466;SDS011;60968;37.490;-122.288;2023-02-01T09:31:40;8.37;;;0.80;;
29466;SDS011;60968;37.490;-122.288;2023-02-01T09:34:41;3.50;;;0.80;;
29466;SDS011;60968;37.490;-122.288;2023-02-01T09:37:42;3.77;;;0.73;;
29466;SDS011;60968;37.490;-122.288;2023-02-01T09:40:44;0.97;;;0.50;;
29466;SDS011;60968;37.490;-122.288;2023-02-01T09:47:00;4.83;;;0.63;;
29466;SDS011;60968;37.490;-122.288;2023-02-01T09:53:12;2.73;;;0.70;;
29466;SDS011;60968;37.490;-122.288;2023-02-01T09:56:26;3.50;;;0.53;;
29466;SDS011;60968;37.490;-122.288;2023-02-01T10:02:48;2.43;;;0.83;;
29466;SDS011;60968;37.490;-122.288;2023-02-01T10:05:54;1.60;;;0.50;;
29466;SDS011;60968;37.490;-122.288;2023-02-01T10:09:25;3.33;;;0.77;;
29466;SDS011;60968;37.490;-122.288;2023-02-01T10:26:11;1.13;;;0.70;;
29466;SDS011;60968;37.490;-122.288;2023-02-01T10:29:17;2.00;;;0.80;;
29466;SDS011;60968;37.490;-122.288;2023-02-01T10:32:20;2.70;;;0.50;;
29466;SDS011;60968;37.490;-122.288;2023-02-01T10:35:30;1.70;;;0.60;;
29466;SDS011;60968;37.490;-122.288;2023-02-01T10:38:35;2.00;;;0.63;;
29466;SDS011;60968;37.490;-122.288;2023-02-01T10:41:36;0.80;;;0.43;;
29466;SDS011;60968;37.490;-122.288;2023-02-01T10:44:40;3.77;;;0.67;;
29466;SDS011;60968;37.490;-122.288;2023-02-01T10:47:45;3.43;;;0.70;;
29466;SDS011;60968;37.490;-122.288;2023-02-01T10:50:58;1.53;;;0.60;;
29466;SDS011;60968;37.490;-122.288;2023-02-01T10:54:03;3.30;;;0.63;;
29466;SDS011;60968;37.490;-122.288;2023-02-01T10:57:32;1.73;;;0.57;;
29466;SDS011;60968;37.490;-122.288;2023-02-01T11:01:06;2.40;;;0.70;;
29466;SDS011;60968;37.490;-122.288;2023-02-01T11:04:16;1.97;;;0.80;;
29466;SDS011;60968;37.490;-122.288;2023-02-01T11:07:24;2.03;;;0.80;;
29466;SDS011;60968;37.490;-122.288;2023-02-01T11:10:37;2.13;;;0.77;;
29466;SDS011;60968;37.490;-122.288;2023-02-01T11:13:40;2.87;;;0.73;;
29466;SDS011;60968;37.490;-122.288;2023-02-01T11:16:41;3.17;;;0.77;;
29466;SDS011;60968;37.490;-122.288;2023-02-01T11:19:59;2.23;;;0.80;;
29466;SDS011;60968;37.490;-122.288;2023-02-01T11:23:01;2.60;;;0.67;;
29466;SDS011;60968;37.490;-122.288;2023-02-01T11:26:13;3.37;;;0.73;;
29466;SDS011;60968;37.490;-122.288;2023-02-01T11:29:20;1.97;;;0.70;;
29466;SDS011;60968;37.490;-122.288;2023-02-01T11:32:23;3.13;;;0.70;;
29466;SDS011;60968;37.490;-122.288;2023-02-01T11:35:25;4.67;;;1.87;;
29466;SDS011;60968;37.490;-122.288;2023-02-01T11:38:31;3.00;;;0.70;;
29466;SDS011;60968;37.490;-122.288;2023-02-01T11:41:33;2.33;;;0.87;;
29466;SDS011;60968;37.490;-122.288;2023-02-01T11:47:53;7.63;;;0.80;;
29466;SDS011;60968;37.490;-122.288;2023-02-01T11:54:21;6.00;;;0.80;;
29466;SDS011;60968;37.490;-122.288;2023-02-01T11:58:01;5.53;;;0.80;;
29466;SDS011;60968;37.490;-122.288;2023-02-01T12:04:51;2.90;;;0.83;;
29466;SDS011;60968;37.490;-122.288;2023-02-01T12:11:58;2.57;;;0.80;;
29466;SDS011;60968;37.490;-122.288;2023-02-01T12:18:43;5.70;;;0.87;;
29466;SDS011;60968;37.490;-122.288;2023-02-01T12:22:15;2.10;;;0.67;;
29466;SDS011;60968;37.490;-122.288;2023-02-01T12:32:06;6.10;;;0.97;;
29466;SDS011;60968;37.490;-122.288;2023-02-01T12:35:20;4.10;;;1.70;;
29466;SDS011;60968;37.490;-122.288;2023-02-01T12:42:00;3.83;;;1.13;;
29466;SDS011;60968;37.490;-122.288;2023-02-01T12:51:55;6.57;;;1.07;;
29466;SDS011;60968;37.490;-122.288;2023-02-01T12:55:09;9.57;;;1.47;;
29466;SDS011;60968;37.490;-122.288;2023-02-01T12:58:35;3.93;;;1.20;;
29466;SDS011;60968;37.490;-122.288;2023-02-01T13:01:46;8.57;;;1.97;;
29466;SDS011;60968;37.490;-122.288;2023-02-01T13:05:03;13.80;;;2.30;;
29466;SDS011;60968;37.490;-122.288;2023-02-01T13:08:36;7.37;;;1.60;;
29466;SDS011;60968;37.490;-122.288;2023-02-01T13:11:49;12.10;;;2.17;;
29466;SDS011;60968;37.490;-122.288;2023-02-01T13:14:55;7.07;;;1.97;;
29466;SDS011;60968;37.490;-122.288;2023-02-01T13:18:02;9.03;;;1.67;;
29466;SDS011;60968;37.490;-122.288;2023-02-01T13:21:10;5.83;;;2.13;;
29466;SDS011;60968;37.490;-122.288;2023-02-01T13:24:28;9.43;;;2.37;;
29466;SDS011;60968;37.490;-122.288;2023-02-01T13:27:40;8.77;;;2.10;;
29466;SDS011;60968;37.490;-122.288;2023-02-01T13:31:00;9.70;;;2.10;;
29466;SDS011;60968;37.490;-122.288;2023-02-01T13:34:26;11.60;;;2.20;;
29466;SDS011;60968;37.490;-122.288;2023-02-01T13:44:29;10.73;;;2.47;;
29466;SDS011;60968;37.490;-122.288;2023-02-01T13:47:40;9.70;;;2.63;;
29466;SDS011;60968;37.490;-122.288;2023-02-01T13:50:49;7.43;;;2.37;;
29466;SDS011;60968;37.490;-122.288;2023-02-01T13:53:52;11.27;;;2.30;;
29466;SDS011;60968;37.490;-122.288;2023-02-01T13:56:53;5.50;;;1.87;;
29466;SDS011;60968;37.490;-122.288;2023-02-01T13:59:55;7.93;;;3.40;;
29466;SDS011;60968;37.490;-122.288;2023-02-01T14:03:42;8.47;;;1.50;;
29466;SDS011;60968;37.490;-122.288;2023-02-01T14:06:45;5.47;;;1.53;;
29466;SDS011;60968;37.490;-122.288;2023-02-01T14:09:46;5.93;;;1.80;;
29466;SDS011;60968;37.490;-122.288;2023-02-01T14:12:48;5.37;;;1.60;;
29466;SDS011;60968;37.490;-122.288;2023-02-01T14:19:07;5.50;;;1.20;;
29466;SDS011;60968;37.490;-122.288;2023-02-01T14:25:23;5.23;;;1.27;;
29466;SDS011;60968;37.490;-122.288;2023-02-01T14:28:25;4.23;;;1.20;;
29466;SDS011;60968;37.490;-122.288;2023-02-01T14:34:35;3.90;;;1.03;;
29466;SDS011;60968;37.490;-122.288;2023-02-01T14:37:58;1.53;;;0.90;;
29466;SDS011;60968;37.490;-122.288;2023-02-01T14:44:32;7.13;;;1.23;;
29466;SDS011;60968;37.490;-122.288;2023-02-01T14:47:34;6.60;;;1.50;;
29466;SDS011;60968;37.490;-122.288;2023-02-01T14:50:42;4.47;;;1.63;;
29466;SDS011;60968;37.490;-122.288;2023-02-01T14:53:46;8.43;;;1.63;;
29466;SDS011;60968;37.490;-122.288;2023-02-01T14:56:47;8.03;;;1.27;;
29466;SDS011;60968;37.490;-122.288;2023-02-01T14:59:49;2.37;;;1.10;;
29466;SDS011;60968;37.490;-122.288;2023-02-01T15:03:16;4.60;;;1.10;;
29466;SDS011;60968;37.490;-122.288;2023-02-01T15:09:45;6.57;;;1.20;;
29466;SDS011;60968;37.490;-122.288;2023-02-01T15:12:49;7.87;;;1.30;;
29466;SDS011;60968;37.490;-122.288;2023-02-01T15:16:04;10.00;;;1.40;;
29466;SDS011;60968;37.490;-122.288;2023-02-01T15:19:12;8.03;;;1.30;;
29466;SDS011;60968;37.490;-122.288;2023-02-01T15:22:18;4.63;;;1.53;;
29466;SDS011;60968;37.490;-122.288;2023-02-01T15:25:20;5.60;;;1.13;;
29466;SDS011;60968;37.490;-122.288;2023-02-01T15:28:23;3.87;;;1.20;;
29466;SDS011;60968;37.490;-122.288;2023-02-01T15:34:45;3.37;;;1.50;;
29466;SDS011;60968;37.490;-122.288;2023-02-01T15:37:48;3.67;;;1.20;;
29466;SDS011;60968;37.490;-122.288;2023-02-01T15:40:56;1.83;;;0.87;;
29466;SDS011;60968;37.490;-122.288;2023-02-01T15:44:05;4.03;;;1.30;;
29466;SDS011;60968;37.490;-122.288;2023-02-01T15:47:17;3.87;;;1.40;;
29466;SDS011;60968;37.490;-122.288;2023-02-01T15:50:20;4.07;;;1.70;;
29466;SDS011;60968;37.490;-122.288;2023-02-01T15:53:23;5.10;;;1.43;;
29466;SDS011;60968;37.490;-122.288;2023-02-01T15:56:32;4.03;;;1.50;;
29466;SDS011;60968;37.490;-122.288;2023-02-01T15:59:45;3.33;;;1.20;;
29466;SDS011;60968;37.490;-122.288;2023-02-01T16:02:56;6.60;;;1.23;;
29466;SDS011;60968;37.490;-122.288;2023-02-01T16:05:59;5.57;;;1.10;;
29466;SDS011;60968;37.490;-122.288;2023-02-01T16:09:03;3.27;;;1.10;;
29466;SDS011;60968;37.490;-122.288;2023-02-01T16:15:31;1.73;;;0.90;;
29466;SDS011;60968;37.490;-122.288;2023-02-01T16:18:32;3.70;;;1.10;;
29466;SDS011;60968;37.490;-122.288;2023-02-01T16:21:34;5.33;;;0.83;;
29466;SDS011;60968;37.490;-122.288;2023-02-01T16:24:35;6.23;;;0.80;;
29466;SDS011;60968;37.490;-122.288;2023-02-01T16:27:36;5.23;;;1.67;;
29466;SDS011;60968;37.490;-122.288;2023-02-01T16:30:36;4.03;;;1.20;;
29466;SDS011;60968;37.490;-122.288;2023-02-01T16:33:37;2.97;;;1.27;;
29466;SDS011;60968;37.490;-122.288;2023-02-01T16:36:38;4.33;;;1.50;;
29466;SDS011;60968;37.490;-122.288;2023-02-01T16:39:39;3.83;;;1.37;;
29466;SDS011;60968;37.490;-122.288;2023-02-01T16:42:40;4.10;;;1.47;;
29466;SDS011;60968;37.490;-122.288;2023-02-01T16:45:41;3.50;;;1.50;;
29466;SDS011;60968;37.490;-122.288;2023-02-01T16:48:45;7.50;;;2.07;;
29466;SDS011;60968;37.490;-122.288;2023-02-01T16:51:51;5.53;;;2.03;;
29466;SDS011;60968;37.490;-122.288;2023-02-01T16:54:56;5.83;;;1.70;;
29466;SDS011;60968;37.490;-122.288;2023-02-01T16:57:57;4.40;;;1.87;;
29466;SDS011;60968;37.490;-122.288;2023-02-01T17:00:58;6.50;;;2.77;;
29466;SDS011;60968;37.490;-122.288;2023-02-01T17:03:59;5.87;;;1.90;;
29466;SDS011;60968;37.490;-122.288;2023-02-01T17:07:00;7.97;;;2.00;;
29466;SDS011;60968;37.490;-122.288;2023-02-01T17:10:01;10.03;;;2.67;;
29466;SDS011;60968;37.490;-122.288;2023-02-01T17:13:02;5.13;;;2.03;;
29466;SDS011;60968;37.490;-122.288;2023-02-01T17:16:04;6.50;;;2.40;;
29466;SDS011;60968;37.490;-122.288;2023-02-01T17:19:16;5.43;;;1.77;;
29466;SDS011;60968;37.490;-122.288;2023-02-01T17:22:20;5.20;;;2.53;;
29466;SDS011;60968;37.490;-122.288;2023-02-01T17:25:21;6.67;;;2.40;;
29466;SDS011;60968;37.490;-122.288;2023-02-01T17:28:22;6.33;;;1.77;;
29466;SDS011;60968;37.490;-122.288;2023-02-01T17:31:23;4.47;;;1.60;;
29466;SDS011;60968;37.490;-122.288;2023-02-01T17:34:24;7.63;;;2.07;;
29466;SDS011;60968;37.490;-122.288;2023-02-01T17:37:27;2.33;;;1.57;;
29466;SDS011;60968;37.490;-122.288;2023-02-01T17:40:29;4.17;;;1.60;;
29466;SDS011;60968;37.490;-122.288;2023-02-01T17:43:30;2.97;;;1.13;;
29466;SDS011;60968;37.490;-122.288;2023-02-01T17:46:31;2.67;;;1.30;;
29466;SDS011;60968;37.490;-122.288;2023-02-01T17:49:32;5.80;;;1.57;;
29466;SDS011;60968;37.490;-122.288;2023-02-01T17:52:33;6.30;;;1.53;;
29466;SDS011;60968;37.490;-122.288;2023-02-01T17:55:35;3.57;;;1.13;;
29466;SDS011;60968;37.490;-122.288;2023-02-01T17:58:40;1.73;;;1.23;;
29466;SDS011;60968;37.490;-122.288;2023-02-01T18:01:41;5.13;;;1.00;;
29466;SDS011;60968;37.490;-122.288;2023-02-01T18:04:42;6.97;;;1.27;;
29466;SDS011;60968;37.490;-122.288;2023-02-01T18:07:43;2.60;;;1.10;;
29466;SDS011;60968;37.490;-122.288;2023-02-01T18:10:44;3.87;;;1.30;;
29466;SDS011;60968;37.490;-122.288;2023-02-01T18:13:47;2.40;;;1.10;;
29466;SDS011;60968;37.490;-122.288;2023-02-01T18:16:48;3.80;;;1.37;;
29466;SDS011;60968;37.490;-122.288;2023-02-01T18:19:49;1.60;;;0.90;;
29466;SDS011;60968;37.490;-122.288;2023-02-01T18:22:50;2.77;;;1.30;;
29466;SDS011;60968;37.490;-122.288;2023-02-01T18:25:51;3.60;;;1.40;;
29466;SDS011;60968;37.490;-122.288;2023-02-01T18:28:52;9.90;;;1.80;;
29466;SDS011;60968;37.490;-122.288;2023-02-01T18:31:53;3.50;;;1.50;;
29466;SDS011;60968;37.490;-122.288;2023-02-01T18:34:54;4.80;;;1.70;;
29466;SDS011;60968;37.490;-122.288;2023-02-01T18:37:55;2.77;;;1.40;;
29466;SDS011;60968;37.490;-122.288;2023-02-01T18:40:57;3.73;;;1.77;;
29466;SDS011;60968;37.490;-122.288;2023-02-01T18:43:58;6.30;;;1.53;;
29466;SDS011;60968;37.490;-122.288;2023-02-01T18:46:59;3.53;;;1.70;;
29466;SDS011;60968;37.490;-122.288;2023-02-01T18:49:59;3.73;;;1.67;;
29466;SDS011;60968;37.490;-122.288;2023-02-01T18:53:03;3.13;;;1.43;;
29466;SDS011;60968;37.490;-122.288;2023-02-01T18:56:06;3.90;;;1.97;;
29466;SDS011;60968;37.490;-122.288;2023-02-01T18:59:10;4.50;;;2.03;;
29466;SDS011;60968;37.490;-122.288;2023-02-01T19:02:11;6.93;;;1.93;;
29466;SDS011;60968;37.490;-122.288;2023-02-01T19:05:12;3.23;;;2.00;;
29466;SDS011;60968;37.490;-122.288;2023-02-01T19:08:14;6.20;;;1.90;;
29466;SDS011;60968;37.490;-122.288;2023-02-01T19:11:15;6.10;;;2.10;;
29466;SDS011;60968;37.490;-122.288;2023-02-01T19:14:15;3.90;;;2.13;;
29466;SDS011;60968;37.490;-122.288;2023-02-01T19:17:16;6.23;;;2.17;;
29466;SDS011;60968;37.490;-122.288;2023-02-01T19:20:18;2.87;;;2.03;;
29466;SDS011;60968;37.490;-122.288;2023-02-01T19:23:20;5.47;;;2.57;;
29466;SDS011;60968;37.490;-122.288;2023-02-01T19:26:23;5.93;;;2.30;;
29466;SDS011;60968;37.490;-122.288;2023-02-01T19:29:26;5.20;;;2.43;;
29466;SDS011;60968;37.490;-122.288;2023-02-01T19:32:28;5.60;;;2.67;;
29466;SDS011;60968;37.490;-122.288;2023-02-01T19:35:30;6.03;;;2.67;;